sensor_id;sensor_type;location;lat;lon;timestamp;pressure;altitude;pressure_sealevel;temperature;humidity
27685;BME280;46113;50.130;8.526;2023-04-23T00:01:13;98375.47;;;10.56;72.31
27685;BME280;46113;50.130;8.526;2023-04-23T00:03:43;98370.28;;;10.55;72.07
27685;BME280;46113;50.130;8.526;2023-04-23T00:06:11;98372.81;;;10.56;72.58
27685;BME280;46113;50.130;8.526;2023-04-23T00:08:39;98364.09;;;10.30;72.63
27685;BME280;46113;50.130;8.526;2023-04-23T00:11:07;98363.94;;;10.57;72.36
27685;BME280;46113;50.130;8.526;2023-04-23T00:13:35;98360.19;;;10.35;74.66
27685;BME280;46113;50.130;8.526;2023-04-23T00:16:02;98357.72;;;10.45;73.94
27685;BME280;46113;50.130;8.526;2023-04-23T00:18:29;98365.53;;;10.47;73.97
27685;BME280;46113;50.130;8.526;2023-04-23T00:20:56;98361.63;;;10.53;73.76
27685;BME280;46113;50.130;8.526;2023-04-23T00:23:23;98363.50;;;10.51;74.47
27685;BME280;46113;50.130;8.526;2023-04-23T00:25:50;98352.44;;;10.45;74.03
27685;BME280;46113;50.130;8.526;2023-04-23T00:28:17;98354.00;;;10.48;73.86
27685;BME280;46113;50.130;8.526;2023-04-23T00:30:47;98353.84;;;10.38;73.73
27685;BME280;46113;50.130;8.526;2023-04-23T00:33:14;98348.53;;;10.01;76.14
27685;BME280;46113;50.130;8.526;2023-04-23T00:35:41;98350.47;;;10.36;73.88
27685;BME280;46113;50.130;8.526;2023-04-23T00:38:08;98350.22;;;10.39;73.95
27685;BME280;46113;50.130;8.526;2023-04-23T00:40:35;98348.19;;;10.43;74.10
27685;BME280;46113;50.130;8.526;2023-04-23T00:43:05;98347.03;;;10.47;75.09
27685;BME280;46113;50.130;8.526;2023-04-23T00:45:32;98356.13;;;10.05;74.69
27685;BME280;46113;50.130;8.526;2023-04-23T00:48:01;98353.94;;;10.37;73.60
27685;BME280;46113;50.130;8.526;2023-04-23T00:50:28;98351.19;;;10.38;74.16
27685;BME280;46113;50.130;8.526;2023-04-23T00:52:55;98358.03;;;10.03;75.19
27685;BME280;46113;50.130;8.526;2023-04-23T00:55:22;98351.13;;;10.27;74.43
27685;BME280;46113;50.130;8.526;2023-04-23T00:57:49;98348.59;;;10.12;76.23
27685;BME280;46113;50.130;8.526;2023-04-23T01:00:16;98352.00;;;9.88;77.42
27685;BME280;46113;50.130;8.526;2023-04-23T01:02:44;98346.03;;;10.24;76.04
27685;BME280;46113;50.130;8.526;2023-04-23T01:05:13;98341.72;;;10.22;75.93
27685;BME280;46113;50.130;8.526;2023-04-23T01:07:43;98347.34;;;9.92;76.26
27685;BME280;46113;50.130;8.526;2023-04-23T01:10:11;98342.81;;;10.07;75.93
27685;BME280;46113;50.130;8.526;2023-04-23T01:12:38;98337.59;;;10.18;75.58
27685;BME280;46113;50.130;8.526;2023-04-23T01:15:06;98349.94;;;10.31;75.26
27685;BME280;46113;50.130;8.526;2023-04-23T01:17:33;98343.34;;;9.86;77.75
27685;BME280;46113;50.130;8.526;2023-04-23T01:20:00;98340.19;;;9.81;77.22
27685;BME280;46113;50.130;8.526;2023-04-23T01:22:27;98345.56;;;9.92;77.70
27685;BME280;46113;50.130;8.526;2023-04-23T01:24:54;98346.19;;;9.83;76.15
27685;BME280;46113;50.130;8.526;2023-04-23T01:27:21;98348.81;;;9.96;76.85
27685;BME280;46113;50.130;8.526;2023-04-23T01:29:50;98350.84;;;10.05;76.16
27685;BME280;46113;50.130;8.526;2023-04-23T01:32:17;98355.25;;;9.66;77.85
27685;BME280;46113;50.130;8.526;2023-04-23T01:34:45;98348.09;;;10.07;76.66
27685;BME280;46113;50.130;8.526;2023-04-23T01:37:15;98351.91;;;10.03;76.64
27685;BME280;46113;50.130;8.526;2023-04-23T01:39:42;98358.22;;;10.00;76.95
27685;BME280;46113;50.130;8.526;2023-04-23T01:42:09;98358.44;;;9.84;77.04
27685;BME280;46113;50.130;8.526;2023-04-23T01:44:37;98357.63;;;9.97;76.20
27685;BME280;46113;50.130;8.526;2023-04-23T01:47:04;98355.59;;;9.87;77.41
27685;BME280;46113;50.130;8.526;2023-04-23T01:49:32;98366.75;;;9.52;79.29
27685;BME280;46113;50.130;8.526;2023-04-23T01:52:02;98363.59;;;9.73;78.80
27685;BME280;46113;50.130;8.526;2023-04-23T01:54:29;98365.00;;;9.91;77.53
27685;BME280;46113;50.130;8.526;2023-04-23T01:56:56;98357.63;;;9.84;76.90
27685;BME280;46113;50.130;8.526;2023-04-23T01:59:25;98362.97;;;10.08;76.37
27685;BME280;46113;50.130;8.526;2023-04-23T02:01:52;98368.28;;;9.82;77.12
27685;BME280;46113;50.130;8.526;2023-04-23T02:04:20;98361.06;;;9.58;78.36
27685;BME280;46113;50.130;8.526;2023-04-23T02:06:50;98371.66;;;9.84;77.11
27685;BME280;46113;50.130;8.526;2023-04-23T02:09:17;98372.09;;;9.78;77.10
27685;BME280;46113;50.130;8.526;2023-04-23T02:11:45;98366.94;;;9.36;78.82
27685;BME280;46113;50.130;8.526;2023-04-23T02:14:12;98370.25;;;9.52;79.06
27685;BME280;46113;50.130;8.526;2023-04-23T02:16:39;98369.06;;;9.56;77.92
27685;BME280;46113;50.130;8.526;2023-04-23T02:19:05;98366.44;;;9.56;77.94
27685;BME280;46113;50.130;8.526;2023-04-23T02:21:33;98372.09;;;9.24;79.55
27685;BME280;46113;50.130;8.526;2023-04-23T02:24:00;98368.34;;;9.67;77.83
27685;BME280;46113;50.130;8.526;2023-04-23T02:26:27;98361.28;;;9.68;77.73
27685;BME280;46113;50.130;8.526;2023-04-23T02:28:54;98364.56;;;9.05;80.08
27685;BME280;46113;50.130;8.526;2023-04-23T02:31:21;98369.22;;;9.55;78.55
27685;BME280;46113;50.130;8.526;2023-04-23T02:33:48;98367.56;;;9.26;79.63
27685;BME280;46113;50.130;8.526;2023-04-23T02:36:15;98374.16;;;9.60;78.60
27685;BME280;46113;50.130;8.526;2023-04-23T02:38:42;98378.56;;;9.33;80.17
27685;BME280;46113;50.130;8.526;2023-04-23T02:41:11;98383.47;;;9.65;77.75
27685;BME280;46113;50.130;8.526;2023-04-23T02:43:37;98379.44;;;9.60;78.16
27685;BME280;46113;50.130;8.526;2023-04-23T02:46:04;98385.59;;;9.60;77.68
27685;BME280;46113;50.130;8.526;2023-04-23T02:48:39;98382.09;;;9.73;77.05
27685;BME280;46113;50.130;8.526;2023-04-23T02:51:09;98385.78;;;9.57;78.14
27685;BME280;46113;50.130;8.526;2023-04-23T02:53:36;98392.31;;;9.11;79.08
27685;BME280;46113;50.130;8.526;2023-04-23T02:56:03;98392.59;;;9.34;77.88
27685;BME280;46113;50.130;8.526;2023-04-23T02:58:30;98394.25;;;9.22;79.35
27685;BME280;46113;50.130;8.526;2023-04-23T03:00:59;98391.97;;;9.30;78.68
27685;BME280;46113;50.130;8.526;2023-04-23T03:03:27;98396.19;;;8.92;79.29
27685;BME280;46113;50.130;8.526;2023-04-23T03:06:00;98396.22;;;9.05;78.61
27685;BME280;46113;50.130;8.526;2023-04-23T03:08:27;98392.34;;;9.24;78.20
27685;BME280;46113;50.130;8.526;2023-04-23T03:10:54;98403.13;;;8.93;79.16
27685;BME280;46113;50.130;8.526;2023-04-23T03:13:21;98396.66;;;9.12;79.71
27685;BME280;46113;50.130;8.526;2023-04-23T03:15:49;98406.31;;;9.26;78.96
27685;BME280;46113;50.130;8.526;2023-04-23T03:18:16;98404.25;;;9.44;77.93
27685;BME280;46113;50.130;8.526;2023-04-23T03:20:46;98403.19;;;9.47;76.17
27685;BME280;46113;50.130;8.526;2023-04-23T03:23:13;98405.47;;;9.38;75.95
27685;BME280;46113;50.130;8.526;2023-04-23T03:25:41;98407.25;;;9.25;78.14
27685;BME280;46113;50.130;8.526;2023-04-23T03:28:07;98409.59;;;9.29;77.29
27685;BME280;46113;50.130;8.526;2023-04-23T03:30:34;98402.81;;;9.25;76.32
27685;BME280;46113;50.130;8.526;2023-04-23T03:33:02;98409.66;;;8.87;78.35
27685;BME280;46113;50.130;8.526;2023-04-23T03:35:29;98415.22;;;8.83;77.13
27685;BME280;46113;50.130;8.526;2023-04-23T03:37:59;98420.69;;;9.07;77.17
27685;BME280;46113;50.130;8.526;2023-04-23T03:40:26;98418.19;;;8.63;78.33
27685;BME280;46113;50.130;8.526;2023-04-23T03:42:57;98407.09;;;9.13;76.57
27685;BME280;46113;50.130;8.526;2023-04-23T03:45:44;98401.81;;;8.86;78.13
27685;BME280;46113;50.130;8.526;2023-04-23T03:48:11;98413.75;;;9.06;76.46
27685;BME280;46113;50.130;8.526;2023-04-23T03:50:41;98406.28;;;9.13;76.26
27685;BME280;46113;50.130;8.526;2023-04-23T03:53:21;98404.59;;;9.12;75.53
27685;BME280;46113;50.130;8.526;2023-04-23T03:56:07;98408.19;;;9.24;75.54
27685;BME280;46113;50.130;8.526;2023-04-23T03:58:43;98416.56;;;9.30;75.48
27685;BME280;46113;50.130;8.526;2023-04-23T04:01:10;98413.06;;;9.17;75.92
27685;BME280;46113;50.130;8.526;2023-04-23T04:03:37;98416.59;;;9.16;76.19
27685;BME280;46113;50.130;8.526;2023-04-23T04:06:04;98412.63;;;9.23;76.63
27685;BME280;46113;50.130;8.526;2023-04-23T04:08:31;98416.78;;;9.27;76.44
27685;BME280;46113;50.130;8.526;2023-04-23T04:10:59;98408.88;;;9.00;76.79
27685;BME280;46113;50.130;8.526;2023-04-23T04:13:25;98407.28;;;8.97;77.51
27685;BME280;46113;50.130;8.526;2023-04-23T04:15:52;98413.19;;;9.28;76.21
27685;BME280;46113;50.130;8.526;2023-04-23T04:18:19;98416.47;;;9.32;76.21
27685;BME280;46113;50.130;8.526;2023-04-23T04:20:46;98419.59;;;9.24;77.03
27685;BME280;46113;50.130;8.526;2023-04-23T04:23:13;98420.66;;;9.22;77.39
27685;BME280;46113;50.130;8.526;2023-04-23T04:25:41;98417.22;;;9.34;76.42
27685;BME280;46113;50.130;8.526;2023-04-23T04:28:08;98418.66;;;9.25;77.36
27685;BME280;46113;50.130;8.526;2023-04-23T04:30:37;98416.16;;;9.37;76.48
27685;BME280;46113;50.130;8.526;2023-04-23T04:33:04;98413.00;;;9.45;76.37
27685;BME280;46113;50.130;8.526;2023-04-23T04:35:31;98416.25;;;9.35;76.99
27685;BME280;46113;50.130;8.526;2023-04-23T04:37:58;98414.69;;;9.05;77.98
27685;BME280;46113;50.130;8.526;2023-04-23T04:40:26;98417.59;;;9.00;78.51
27685;BME280;46113;50.130;8.526;2023-04-23T04:42:53;98427.94;;;9.18;77.67
27685;BME280;46113;50.130;8.526;2023-04-23T04:45:20;98415.38;;;9.22;77.86
27685;BME280;46113;50.130;8.526;2023-04-23T04:47:47;98424.97;;;9.23;77.89
27685;BME280;46113;50.130;8.526;2023-04-23T04:50:14;98417.78;;;8.84;79.34
27685;BME280;46113;50.130;8.526;2023-04-23T04:52:41;98418.81;;;9.09;78.00
27685;BME280;46113;50.130;8.526;2023-04-23T04:55:08;98424.44;;;9.18;77.03
27685;BME280;46113;50.130;8.526;2023-04-23T04:57:35;98428.75;;;8.91;78.19
27685;BME280;46113;50.130;8.526;2023-04-23T05:00:21;98432.16;;;9.21;77.02
27685;BME280;46113;50.130;8.526;2023-04-23T05:02:51;98431.97;;;8.96;77.28
27685;BME280;46113;50.130;8.526;2023-04-23T05:05:20;98428.47;;;8.96;77.39
27685;BME280;46113;50.130;8.526;2023-04-23T05:07:47;98426.97;;;9.19;76.19
27685;BME280;46113;50.130;8.526;2023-04-23T05:10:14;98426.88;;;9.21;77.10
27685;BME280;46113;50.130;8.526;2023-04-23T05:12:42;98429.69;;;9.45;75.97
27685;BME280;46113;50.130;8.526;2023-04-23T05:15:10;98428.44;;;9.51;74.96
27685;BME280;46113;50.130;8.526;2023-04-23T05:17:39;98428.69;;;9.33;75.49
27685;BME280;46113;50.130;8.526;2023-04-23T05:20:08;98432.22;;;9.47;75.64
27685;BME280;46113;50.130;8.526;2023-04-23T05:22:37;98442.06;;;9.45;75.17
27685;BME280;46113;50.130;8.526;2023-04-23T05:25:04;98446.97;;;9.36;75.83
27685;BME280;46113;50.130;8.526;2023-04-23T05:27:33;98442.22;;;9.01;75.71
27685;BME280;46113;50.130;8.526;2023-04-23T05:30:05;98435.84;;;8.90;77.60
27685;BME280;46113;50.130;8.526;2023-04-23T05:32:34;98440.97;;;9.07;77.23
27685;BME280;46113;50.130;8.526;2023-04-23T05:35:01;98430.06;;;9.26;76.33
27685;BME280;46113;50.130;8.526;2023-04-23T05:37:29;98441.81;;;9.35;76.67
27685;BME280;46113;50.130;8.526;2023-04-23T05:39:56;98437.31;;;9.50;75.88
27685;BME280;46113;50.130;8.526;2023-04-23T05:42:24;98436.56;;;9.61;75.65
27685;BME280;46113;50.130;8.526;2023-04-23T05:44:50;98444.91;;;9.54;74.11
27685;BME280;46113;50.130;8.526;2023-04-23T05:47:17;98450.50;;;9.90;73.83
27685;BME280;46113;50.130;8.526;2023-04-23T05:49:44;98441.72;;;9.77;74.61
27685;BME280;46113;50.130;8.526;2023-04-23T05:52:11;98438.34;;;10.40;72.72
27685;BME280;46113;50.130;8.526;2023-04-23T05:54:37;98441.72;;;10.92;70.43
27685;BME280;46113;50.130;8.526;2023-04-23T05:57:05;98445.69;;;10.60;68.40
27685;BME280;46113;50.130;8.526;2023-04-23T05:59:32;98446.59;;;11.47;67.89
27685;BME280;46113;50.130;8.526;2023-04-23T06:01:59;98448.91;;;11.63;67.97
27685;BME280;46113;50.130;8.526;2023-04-23T06:04:26;98452.69;;;11.12;68.59
27685;BME280;46113;50.130;8.526;2023-04-23T06:06:53;98454.88;;;11.18;68.75
27685;BME280;46113;50.130;8.526;2023-04-23T06:09:20;98461.00;;;11.43;65.97
27685;BME280;46113;50.130;8.526;2023-04-23T06:11:47;98465.91;;;10.61;70.08
27685;BME280;46113;50.130;8.526;2023-04-23T06:14:16;98467.44;;;10.14;72.37
27685;BME280;46113;50.130;8.526;2023-04-23T06:16:42;98468.69;;;9.95;71.35
27685;BME280;46113;50.130;8.526;2023-04-23T06:19:09;98461.88;;;10.69;69.20
27685;BME280;46113;50.130;8.526;2023-04-23T06:21:37;98452.91;;;10.45;70.08
27685;BME280;46113;50.130;8.526;2023-04-23T06:24:05;98450.50;;;10.42;71.45
27685;BME280;46113;50.130;8.526;2023-04-23T06:26:33;98457.09;;;10.74;69.89
27685;BME280;46113;50.130;8.526;2023-04-23T06:29:08;98462.06;;;11.40;68.40
27685;BME280;46113;50.130;8.526;2023-04-23T06:31:41;98444.88;;;11.22;66.86
27685;BME280;46113;50.130;8.526;2023-04-23T06:34:08;98448.53;;;11.32;68.71
27685;BME280;46113;50.130;8.526;2023-04-23T06:36:35;98441.63;;;11.90;64.32
27685;BME280;46113;50.130;8.526;2023-04-23T06:39:02;98443.78;;;11.73;65.93
27685;BME280;46113;50.130;8.526;2023-04-23T06:41:28;98445.63;;;11.48;66.16
27685;BME280;46113;50.130;8.526;2023-04-23T06:44:07;98451.19;;;11.08;69.13
27685;BME280;46113;50.130;8.526;2023-04-23T06:46:38;98447.50;;;11.82;66.27
27685;BME280;46113;50.130;8.526;2023-04-23T06:49:04;98441.53;;;11.56;67.96
27685;BME280;46113;50.130;8.526;2023-04-23T06:51:31;98440.66;;;11.19;68.18
27685;BME280;46113;50.130;8.526;2023-04-23T06:53:58;98444.66;;;11.49;66.10
27685;BME280;46113;50.130;8.526;2023-04-23T06:56:25;98444.84;;;11.71;64.78
27685;BME280;46113;50.130;8.526;2023-04-23T06:58:52;98446.28;;;12.11;66.78
27685;BME280;46113;50.130;8.526;2023-04-23T07:01:20;98453.69;;;12.97;62.97
27685;BME280;46113;50.130;8.526;2023-04-23T07:03:47;98445.06;;;12.72;63.70
27685;BME280;46113;50.130;8.526;2023-04-23T07:06:17;98439.69;;;13.72;60.25
27685;BME280;46113;50.130;8.526;2023-04-23T07:08:44;98432.53;;;12.63;62.43
27685;BME280;46113;50.130;8.526;2023-04-23T07:11:10;98426.66;;;13.03;60.58
27685;BME280;46113;50.130;8.526;2023-04-23T07:13:59;98427.13;;;13.52;60.39
27685;BME280;46113;50.130;8.526;2023-04-23T07:16:26;98424.91;;;13.79;58.77
27685;BME280;46113;50.130;8.526;2023-04-23T07:18:55;98423.91;;;14.01;59.86
27685;BME280;46113;50.130;8.526;2023-04-23T07:21:22;98431.13;;;14.42;57.15
27685;BME280;46113;50.130;8.526;2023-04-23T07:23:49;98432.63;;;13.61;60.00
27685;BME280;46113;50.130;8.526;2023-04-23T07:26:16;98439.03;;;14.01;56.90
27685;BME280;46113;50.130;8.526;2023-04-23T07:28:43;98434.84;;;13.77;59.16
27685;BME280;46113;50.130;8.526;2023-04-23T07:31:11;98429.63;;;14.18;59.60
27685;BME280;46113;50.130;8.526;2023-04-23T07:33:40;98421.53;;;13.77;58.07
27685;BME280;46113;50.130;8.526;2023-04-23T07:36:06;98413.69;;;13.54;58.69
27685;BME280;46113;50.130;8.526;2023-04-23T07:38:33;98424.53;;;14.05;57.25
27685;BME280;46113;50.130;8.526;2023-04-23T07:41:00;98419.78;;;13.87;56.24
27685;BME280;46113;50.130;8.526;2023-04-23T07:43:27;98424.00;;;13.69;57.44
27685;BME280;46113;50.130;8.526;2023-04-23T07:45:54;98428.72;;;14.08;55.47
27685;BME280;46113;50.130;8.526;2023-04-23T07:48:21;98422.78;;;13.94;56.14
27685;BME280;46113;50.130;8.526;2023-04-23T07:50:47;98418.63;;;14.33;55.21
27685;BME280;46113;50.130;8.526;2023-04-23T07:53:17;98417.50;;;12.96;57.04
27685;BME280;46113;50.130;8.526;2023-04-23T07:55:44;98411.31;;;12.17;61.01
27685;BME280;46113;50.130;8.526;2023-04-23T07:58:11;98421.31;;;12.25;60.23
27685;BME280;46113;50.130;8.526;2023-04-23T08:00:38;98413.34;;;12.59;59.53
27685;BME280;46113;50.130;8.526;2023-04-23T08:03:05;98420.31;;;12.83;59.02
27685;BME280;46113;50.130;8.526;2023-04-23T08:05:32;98423.75;;;12.62;59.52
27685;BME280;46113;50.130;8.526;2023-04-23T08:07:59;98433.91;;;13.01;59.07
27685;BME280;46113;50.130;8.526;2023-04-23T08:10:25;98431.06;;;12.58;59.83
27685;BME280;46113;50.130;8.526;2023-04-23T08:12:52;98438.16;;;12.81;59.05
27685;BME280;46113;50.130;8.526;2023-04-23T08:15:19;98440.84;;;12.58;60.21
27685;BME280;46113;50.130;8.526;2023-04-23T08:17:46;98423.13;;;12.70;60.32
27685;BME280;46113;50.130;8.526;2023-04-23T08:20:13;98429.63;;;12.66;59.18
27685;BME280;46113;50.130;8.526;2023-04-23T08:22:40;98424.09;;;12.57;60.35
27685;BME280;46113;50.130;8.526;2023-04-23T08:25:08;98414.69;;;12.65;58.57
27685;BME280;46113;50.130;8.526;2023-04-23T08:27:35;98420.34;;;13.27;58.59
27685;BME280;46113;50.130;8.526;2023-04-23T08:30:02;98409.28;;;14.38;55.37
27685;BME280;46113;50.130;8.526;2023-04-23T08:32:29;98416.47;;;12.87;57.74
27685;BME280;46113;50.130;8.526;2023-04-23T08:34:56;98411.28;;;13.30;56.94
27685;BME280;46113;50.130;8.526;2023-04-23T08:37:24;98407.84;;;13.39;56.35
27685;BME280;46113;50.130;8.526;2023-04-23T08:39:57;98395.16;;;13.85;54.65
27685;BME280;46113;50.130;8.526;2023-04-23T08:42:36;98393.88;;;15.62;50.62
27685;BME280;46113;50.130;8.526;2023-04-23T08:45:03;98388.31;;;16.13;49.81
27685;BME280;46113;50.130;8.526;2023-04-23T08:47:31;98397.50;;;16.00;48.29
27685;BME280;46113;50.130;8.526;2023-04-23T08:49:59;98394.34;;;16.43;48.39
27685;BME280;46113;50.130;8.526;2023-04-23T08:52:32;98396.56;;;17.04;46.54
27685;BME280;46113;50.130;8.526;2023-04-23T08:55:33;98397.03;;;18.07;43.03
27685;BME280;46113;50.130;8.526;2023-04-23T08:58:03;98397.69;;;18.35;43.41
27685;BME280;46113;50.130;8.526;2023-04-23T09:00:32;98393.63;;;18.31;41.75
27685;BME280;46113;50.130;8.526;2023-04-23T09:03:01;98392.38;;;17.19;46.21
27685;BME280;46113;50.130;8.526;2023-04-23T09:06:08;98389.91;;;16.72;44.33
27685;BME280;46113;50.130;8.526;2023-04-23T09:08:35;98393.44;;;17.63;44.43
27685;BME280;46113;50.130;8.526;2023-04-23T09:11:03;98385.56;;;18.49;41.43
27685;BME280;46113;50.130;8.526;2023-04-23T09:13:32;98383.72;;;18.15;39.16
27685;BME280;46113;50.130;8.526;2023-04-23T09:15:59;98373.97;;;18.06;41.99
27685;BME280;46113;50.130;8.526;2023-04-23T09:18:26;98381.06;;;15.95;46.34
27685;BME280;46113;50.130;8.526;2023-04-23T09:20:53;98375.81;;;15.46;48.50
27685;BME280;46113;50.130;8.526;2023-04-23T09:23:21;98364.41;;;16.21;46.54
27685;BME280;46113;50.130;8.526;2023-04-23T09:25:48;98363.19;;;16.72;45.48
27685;BME280;46113;50.130;8.526;2023-04-23T09:28:15;98358.16;;;16.02;46.88
27685;BME280;46113;50.130;8.526;2023-04-23T09:30:43;98363.13;;;15.87;46.20
27685;BME280;46113;50.130;8.526;2023-04-23T09:33:11;98368.94;;;16.11;47.13
27685;BME280;46113;50.130;8.526;2023-04-23T09:35:38;98358.66;;;15.88;48.69
27685;BME280;46113;50.130;8.526;2023-04-23T09:38:08;98357.31;;;15.05;47.67
27685;BME280;46113;50.130;8.526;2023-04-23T09:40:36;98362.38;;;15.18;47.21
27685;BME280;46113;50.130;8.526;2023-04-23T09:43:04;98352.84;;;15.35;46.17
27685;BME280;46113;50.130;8.526;2023-04-23T09:45:32;98346.38;;;15.47;47.37
27685;BME280;46113;50.130;8.526;2023-04-23T09:48:01;98345.28;;;15.20;48.24
27685;BME280;46113;50.130;8.526;2023-04-23T09:50:33;98355.84;;;15.70;47.65
27685;BME280;46113;50.130;8.526;2023-04-23T09:53:02;98353.50;;;14.78;49.17
27685;BME280;46113;50.130;8.526;2023-04-23T09:55:32;98349.38;;;14.44;48.06
27685;BME280;46113;50.130;8.526;2023-04-23T09:58:13;98345.25;;;14.30;51.03
27685;BME280;46113;50.130;8.526;2023-04-23T10:00:44;98336.34;;;14.31;49.96
27685;BME280;46113;50.130;8.526;2023-04-23T10:03:10;98333.16;;;14.06;52.13
27685;BME280;46113;50.130;8.526;2023-04-23T10:05:43;98332.44;;;14.45;50.30
27685;BME280;46113;50.130;8.526;2023-04-23T10:08:36;98326.44;;;14.53;48.81
27685;BME280;46113;50.130;8.526;2023-04-23T10:11:10;98332.81;;;14.40;47.69
27685;BME280;46113;50.130;8.526;2023-04-23T10:14:06;98321.38;;;14.50;49.02
27685;BME280;46113;50.130;8.526;2023-04-23T10:16:41;98326.59;;;14.81;48.68
27685;BME280;46113;50.130;8.526;2023-04-23T10:19:18;98322.53;;;14.57;44.56
27685;BME280;46113;50.130;8.526;2023-04-23T10:21:55;98321.13;;;15.42;45.81
27685;BME280;46113;50.130;8.526;2023-04-23T10:28:16;98323.69;;;15.91;41.73
27685;BME280;46113;50.130;8.526;2023-04-23T10:31:08;98324.50;;;15.24;41.01
27685;BME280;46113;50.130;8.526;2023-04-23T10:34:04;98315.56;;;15.05;41.80
27685;BME280;46113;50.130;8.526;2023-04-23T10:36:39;98317.94;;;14.99;44.40
27685;BME280;46113;50.130;8.526;2023-04-23T10:39:11;98315.25;;;14.79;44.12
27685;BME280;46113;50.130;8.526;2023-04-23T10:41:41;98301.69;;;15.12;43.47
27685;BME280;46113;50.130;8.526;2023-04-23T10:44:16;98312.34;;;15.12;43.91
27685;BME280;46113;50.130;8.526;2023-04-23T10:47:18;98307.59;;;15.73;43.60
27685;BME280;46113;50.130;8.526;2023-04-23T10:49:50;98292.00;;;15.01;45.13
27685;BME280;46113;50.130;8.526;2023-04-23T10:52:18;98294.50;;;15.32;45.41
27685;BME280;46113;50.130;8.526;2023-04-23T10:55:00;98296.00;;;16.02;44.07
27685;BME280;46113;50.130;8.526;2023-04-23T10:58:08;98290.41;;;15.47;43.61
27685;BME280;46113;50.130;8.526;2023-04-23T11:00:44;98286.66;;;15.30;41.92
27685;BME280;46113;50.130;8.526;2023-04-23T11:03:37;98281.66;;;15.65;42.52
27685;BME280;46113;50.130;8.526;2023-04-23T11:06:18;98276.31;;;15.65;42.39
27685;BME280;46113;50.130;8.526;2023-04-23T11:08:50;98278.00;;;15.66;43.13
27685;BME280;46113;50.130;8.526;2023-04-23T11:11:39;98271.25;;;15.14;42.20
27685;BME280;46113;50.130;8.526;2023-04-23T11:14:11;98264.13;;;15.62;44.07
27685;BME280;46113;50.130;8.526;2023-04-23T11:16:41;98267.59;;;16.11;42.01
27685;BME280;46113;50.130;8.526;2023-04-23T11:19:10;98273.78;;;15.06;43.02
27685;BME280;46113;50.130;8.526;2023-04-23T11:21:57;98278.56;;;15.02;41.39
27685;BME280;46113;50.130;8.526;2023-04-23T11:24:29;98264.47;;;15.40;43.12
27685;BME280;46113;50.130;8.526;2023-04-23T11:26:56;98265.38;;;15.68;43.83
27685;BME280;46113;50.130;8.526;2023-04-23T11:29:25;98260.47;;;16.29;42.01
27685;BME280;46113;50.130;8.526;2023-04-23T11:31:54;98264.00;;;15.64;42.64
27685;BME280;46113;50.130;8.526;2023-04-23T11:34:24;98261.69;;;16.53;40.18
27685;BME280;46113;50.130;8.526;2023-04-23T11:36:52;98257.44;;;16.42;41.80
27685;BME280;46113;50.130;8.526;2023-04-23T11:39:21;98260.25;;;15.37;40.33
27685;BME280;46113;50.130;8.526;2023-04-23T11:41:49;98256.25;;;15.71;40.61
27685;BME280;46113;50.130;8.526;2023-04-23T11:44:19;98249.66;;;15.27;38.48
27685;BME280;46113;50.130;8.526;2023-04-23T11:46:49;98248.69;;;15.66;39.40
27685;BME280;46113;50.130;8.526;2023-04-23T11:49:17;98243.00;;;16.35;38.74
27685;BME280;46113;50.130;8.526;2023-04-23T11:51:45;98235.88;;;16.26;37.76
27685;BME280;46113;50.130;8.526;2023-04-23T11:54:12;98226.53;;;16.40;36.58
27685;BME280;46113;50.130;8.526;2023-04-23T11:56:40;98229.53;;;15.81;40.60
27685;BME280;46113;50.130;8.526;2023-04-23T11:59:08;98224.28;;;15.61;36.90
27685;BME280;46113;50.130;8.526;2023-04-23T12:01:40;98217.03;;;14.56;39.55
27685;BME280;46113;50.130;8.526;2023-04-23T12:04:18;98225.88;;;14.27;43.36
27685;BME280;46113;50.130;8.526;2023-04-23T12:06:47;98216.91;;;15.45;43.80
27685;BME280;46113;50.130;8.526;2023-04-23T12:09:27;98218.56;;;16.12;40.60
27685;BME280;46113;50.130;8.526;2023-04-23T12:11:56;98207.88;;;15.66;37.67
27685;BME280;46113;50.130;8.526;2023-04-23T12:14:26;98203.50;;;15.36;39.38
27685;BME280;46113;50.130;8.526;2023-04-23T12:16:57;98195.78;;;15.99;37.29
27685;BME280;46113;50.130;8.526;2023-04-23T12:19:27;98183.53;;;15.79;39.67
27685;BME280;46113;50.130;8.526;2023-04-23T12:21:59;98183.28;;;15.72;36.04
27685;BME280;46113;50.130;8.526;2023-04-23T12:24:28;98188.09;;;15.30;38.17
27685;BME280;46113;50.130;8.526;2023-04-23T12:26:58;98180.09;;;15.68;40.48
27685;BME280;46113;50.130;8.526;2023-04-23T12:29:28;98176.63;;;15.20;39.44
27685;BME280;46113;50.130;8.526;2023-04-23T12:31:59;98175.03;;;14.30;44.81
27685;BME280;46113;50.130;8.526;2023-04-23T12:34:26;98175.19;;;14.38;42.46
27685;BME280;46113;50.130;8.526;2023-04-23T12:36:54;98178.84;;;15.24;43.37
27685;BME280;46113;50.130;8.526;2023-04-23T12:39:28;98165.47;;;15.34;40.02
27685;BME280;46113;50.130;8.526;2023-04-23T12:41:56;98172.00;;;15.22;44.40
27685;BME280;46113;50.130;8.526;2023-04-23T12:44:26;98162.78;;;15.72;39.18
27685;BME280;46113;50.130;8.526;2023-04-23T12:46:54;98166.31;;;16.01;40.65
27685;BME280;46113;50.130;8.526;2023-04-23T12:49:24;98164.94;;;16.33;45.41
27685;BME280;46113;50.130;8.526;2023-04-23T12:51:57;98163.41;;;15.84;43.11
27685;BME280;46113;50.130;8.526;2023-04-23T12:54:28;98158.41;;;15.25;40.86
27685;BME280;46113;50.130;8.526;2023-04-23T12:56:58;98161.47;;;15.20;39.65
27685;BME280;46113;50.130;8.526;2023-04-23T12:59:25;98153.66;;;16.03;37.11
27685;BME280;46113;50.130;8.526;2023-04-23T13:01:52;98150.56;;;16.52;37.83
27685;BME280;46113;50.130;8.526;2023-04-23T13:04:19;98145.91;;;15.54;38.20
27685;BME280;46113;50.130;8.526;2023-04-23T13:06:47;98137.47;;;15.30;39.16
27685;BME280;46113;50.130;8.526;2023-04-23T13:09:14;98134.13;;;15.56;38.22
27685;BME280;46113;50.130;8.526;2023-04-23T13:11:41;98124.81;;;14.94;38.37
27685;BME280;46113;50.130;8.526;2023-04-23T13:14:08;98122.31;;;15.03;39.95
27685;BME280;46113;50.130;8.526;2023-04-23T13:16:35;98125.53;;;14.87;39.88
27685;BME280;46113;50.130;8.526;2023-04-23T13:19:03;98110.72;;;15.22;37.72
27685;BME280;46113;50.130;8.526;2023-04-23T13:21:30;98101.41;;;15.08;39.92